sensor_id;sensor_type;location;lat;lon;timestamp;pressure;altitude;pressure_sealevel;temperature
20848;BMP180;10584;50.854;12.902;2023-08-12T00:01:33;98551.00;;;16.40
20848;BMP180;10584;50.854;12.902;2023-08-12T00:06:55;98558.00;;;16.40
20848;BMP180;10584;50.854;12.902;2023-08-12T00:12:17;98557.00;;;16.40
20848;BMP180;10584;50.854;12.902;2023-08-12T00:17:38;98553.00;;;16.30
20848;BMP180;10584;50.854;12.902;2023-08-12T00:23:03;98556.00;;;16.20
20848;BMP180;10584;50.854;12.902;2023-08-12T00:28:25;98567.00;;;16.10
20848;BMP180;10584;50.854;12.902;2023-08-12T00:33:46;98562.00;;;16.10
20848;BMP180;10584;50.854;12.902;2023-08-12T00:39:07;98561.00;;;16.00
20848;BMP180;10584;50.854;12.902;2023-08-12T00:44:29;98558.00;;;15.90
20848;BMP180;10584;50.854;12.902;2023-08-12T00:49:51;98552.00;;;15.90
20848;BMP180;10584;50.854;12.902;2023-08-12T00:55:12;98545.00;;;15.80
20848;BMP180;10584;50.854;12.902;2023-08-12T01:00:34;98540.00;;;15.70
20848;BMP180;10584;50.854;12.902;2023-08-12T01:05:56;98543.00;;;15.70
20848;BMP180;10584;50.854;12.902;2023-08-12T01:11:21;98540.00;;;15.70
20848;BMP180;10584;50.854;12.902;2023-08-12T01:16:51;98537.00;;;15.70
20848;BMP180;10584;50.854;12.902;2023-08-12T01:22:15;98518.00;;;15.60
20848;BMP180;10584;50.854;12.902;2023-08-12T01:27:38;98523.00;;;15.60
20848;BMP180;10584;50.854;12.902;2023-08-12T01:38:59;98507.00;;;15.50
20848;BMP180;10584;50.854;12.902;2023-08-12T01:44:25;98498.00;;;15.40
20848;BMP180;10584;50.854;12.902;2023-08-12T01:49:47;98498.00;;;15.40
20848;BMP180;10584;50.854;12.902;2023-08-12T01:55:09;98486.00;;;15.40
20848;BMP180;10584;50.854;12.902;2023-08-12T02:00:30;98482.00;;;15.30
20848;BMP180;10584;50.854;12.902;2023-08-12T02:05:52;98471.00;;;15.30
20848;BMP180;10584;50.854;12.902;2023-08-12T02:11:14;98470.00;;;15.20
20848;BMP180;10584;50.854;12.902;2023-08-12T02:16:35;98474.00;;;15.20
20848;BMP180;10584;50.854;12.902;2023-08-12T02:21:57;98461.00;;;15.10
20848;BMP180;10584;50.854;12.902;2023-08-12T02:27:19;98465.00;;;15.10
20848;BMP180;10584;50.854;12.902;2023-08-12T02:32:41;98453.00;;;15.10
20848;BMP180;10584;50.854;12.902;2023-08-12T02:38:05;98436.00;;;15.10
20848;BMP180;10584;50.854;12.902;2023-08-12T02:43:27;98427.00;;;15.10
20848;BMP180;10584;50.854;12.902;2023-08-12T02:48:49;98440.00;;;15.20
20848;BMP180;10584;50.854;12.902;2023-08-12T02:54:10;98438.00;;;15.40
20848;BMP180;10584;50.854;12.902;2023-08-12T02:59:32;98434.00;;;15.60
20848;BMP180;10584;50.854;12.902;2023-08-12T03:04:54;98427.00;;;15.80
20848;BMP180;10584;50.854;12.902;2023-08-12T03:10:15;98420.00;;;15.90
20848;BMP180;10584;50.854;12.902;2023-08-12T03:15:39;98427.00;;;16.00
20848;BMP180;10584;50.854;12.902;2023-08-12T03:21:06;98416.00;;;16.00
20848;BMP180;10584;50.854;12.902;2023-08-12T03:26:28;98417.00;;;15.90
20848;BMP180;10584;50.854;12.902;2023-08-12T03:31:51;98418.00;;;15.90
20848;BMP180;10584;50.854;12.902;2023-08-12T03:37:15;98425.00;;;15.80
20848;BMP180;10584;50.854;12.902;2023-08-12T03:42:36;98422.00;;;15.70
20848;BMP180;10584;50.854;12.902;2023-08-12T03:47:58;98419.00;;;15.70
20848;BMP180;10584;50.854;12.902;2023-08-12T03:53:20;98408.00;;;15.60
20848;BMP180;10584;50.854;12.902;2023-08-12T03:58:43;98417.00;;;15.60
20848;BMP180;10584;50.854;12.902;2023-08-12T04:04:05;98403.00;;;15.70
20848;BMP180;10584;50.854;12.902;2023-08-12T04:09:27;98404.00;;;15.80
20848;BMP180;10584;50.854;12.902;2023-08-12T04:14:48;98411.00;;;16.00
20848;BMP180;10584;50.854;12.902;2023-08-12T04:20:11;98403.00;;;16.00
20848;BMP180;10584;50.854;12.902;2023-08-12T04:25:33;98404.00;;;16.20
20848;BMP180;10584;50.854;12.902;2023-08-12T04:30:54;98404.00;;;16.30
20848;BMP180;10584;50.854;12.902;2023-08-12T04:36:17;98398.00;;;16.40
20848;BMP180;10584;50.854;12.902;2023-08-12T04:41:39;98394.00;;;16.60
20848;BMP180;10584;50.854;12.902;2023-08-12T04:47:01;98398.00;;;16.70
20848;BMP180;10584;50.854;12.902;2023-08-12T04:52:26;98399.00;;;17.00
20848;BMP180;10584;50.854;12.902;2023-08-12T04:57:47;98398.00;;;17.10
20848;BMP180;10584;50.854;12.902;2023-08-12T05:03:09;98394.00;;;17.30
20848;BMP180;10584;50.854;12.902;2023-08-12T05:08:31;98394.00;;;17.40
20848;BMP180;10584;50.854;12.902;2023-08-12T05:13:52;98393.00;;;17.60
20848;BMP180;10584;50.854;12.902;2023-08-12T05:19:14;98390.00;;;17.70
20848;BMP180;10584;50.854;12.902;2023-08-12T05:24:35;98392.00;;;17.80
20848;BMP180;10584;50.854;12.902;2023-08-12T05:29:57;98387.00;;;17.90
20848;BMP180;10584;50.854;12.902;2023-08-12T05:35:18;98382.00;;;18.10
20848;BMP180;10584;50.854;12.902;2023-08-12T05:40:39;98385.00;;;18.40
20848;BMP180;10584;50.854;12.902;2023-08-12T05:46:01;98389.00;;;18.70
20848;BMP180;10584;50.854;12.902;2023-08-12T05:51:22;98386.00;;;19.00
20848;BMP180;10584;50.854;12.902;2023-08-12T05:56:44;98384.00;;;19.40
20848;BMP180;10584;50.854;12.902;2023-08-12T06:02:06;98384.00;;;19.90
20848;BMP180;10584;50.854;12.902;2023-08-12T06:07:27;98383.00;;;20.50
20848;BMP180;10584;50.854;12.902;2023-08-12T06:12:50;98380.00;;;20.80
20848;BMP180;10584;50.854;12.902;2023-08-12T06:18:12;98389.00;;;21.20
20848;BMP180;10584;50.854;12.902;2023-08-12T06:23:33;98372.00;;;21.40
20848;BMP180;10584;50.854;12.902;2023-08-12T06:28:55;98380.00;;;21.70
20848;BMP180;10584;50.854;12.902;2023-08-12T06:34:17;98381.00;;;22.00
20848;BMP180;10584;50.854;12.902;2023-08-12T06:39:38;98382.00;;;22.10
20848;BMP180;10584;50.854;12.902;2023-08-12T06:45:00;98379.00;;;22.20
20848;BMP180;10584;50.854;12.902;2023-08-12T06:50:22;98374.00;;;22.30
20848;BMP180;10584;50.854;12.902;2023-08-12T06:55:46;98369.00;;;22.40
20848;BMP180;10584;50.854;12.902;2023-08-12T07:01:08;98366.00;;;22.90
20848;BMP180;10584;50.854;12.902;2023-08-12T07:06:29;98355.00;;;23.20
20848;BMP180;10584;50.854;12.902;2023-08-12T07:11:51;98355.00;;;23.60
20848;BMP180;10584;50.854;12.902;2023-08-12T07:17:12;98361.00;;;24.10
20848;BMP180;10584;50.854;12.902;2023-08-12T07:22:34;98355.00;;;24.50
20848;BMP180;10584;50.854;12.902;2023-08-12T07:27:55;98366.00;;;24.80
20848;BMP180;10584;50.854;12.902;2023-08-12T07:33:17;98360.00;;;25.20
20848;BMP180;10584;50.854;12.902;2023-08-12T07:38:39;98355.00;;;25.60
20848;BMP180;10584;50.854;12.902;2023-08-12T07:44:00;98354.00;;;25.90
20848;BMP180;10584;50.854;12.902;2023-08-12T07:49:22;98350.00;;;26.20
20848;BMP180;10584;50.854;12.902;2023-08-12T07:54:44;98356.00;;;26.50
20848;BMP180;10584;50.854;12.902;2023-08-12T08:00:06;98354.00;;;26.80
20848;BMP180;10584;50.854;12.902;2023-08-12T08:05:30;98349.00;;;27.10
20848;BMP180;10584;50.854;12.902;2023-08-12T08:10:52;98359.00;;;27.30
20848;BMP180;10584;50.854;12.902;2023-08-12T08:16:13;98354.00;;;27.60
20848;BMP180;10584;50.854;12.902;2023-08-12T08:21:35;98346.00;;;27.80
20848;BMP180;10584;50.854;12.902;2023-08-12T08:26:57;98346.00;;;27.90
20848;BMP180;10584;50.854;12.902;2023-08-12T08:32:19;98349.00;;;27.80
20848;BMP180;10584;50.854;12.902;2023-08-12T08:37:41;98354.00;;;27.80
20848;BMP180;10584;50.854;12.902;2023-08-12T08:43:04;98349.00;;;27.70
20848;BMP180;10584;50.854;12.902;2023-08-12T08:48:28;98347.00;;;27.60
20848;BMP180;10584;50.854;12.902;2023-08-12T08:53:50;98355.00;;;27.50
20848;BMP180;10584;50.854;12.902;2023-08-12T08:59:12;98355.00;;;27.50
20848;BMP180;10584;50.854;12.902;2023-08-12T09:04:34;98364.00;;;27.50
20848;BMP180;10584;50.854;12.902;2023-08-12T09:09:57;98356.00;;;27.40
20848;BMP180;10584;50.854;12.902;2023-08-12T09:15:19;98350.00;;;27.50
20848;BMP180;10584;50.854;12.902;2023-08-12T09:20:40;98353.00;;;27.60
20848;BMP180;10584;50.854;12.902;2023-08-12T09:26:02;98345.00;;;27.60
20848;BMP180;10584;50.854;12.902;2023-08-12T09:31:30;98347.00;;;27.60
20848;BMP180;10584;50.854;12.902;2023-08-12T09:36:58;98329.00;;;27.60
20848;BMP180;10584;50.854;12.902;2023-08-12T09:42:20;98328.00;;;27.70
20848;BMP180;10584;50.854;12.902;2023-08-12T09:47:43;98317.00;;;27.70
20848;BMP180;10584;50.854;12.902;2023-08-12T09:53:05;98310.00;;;27.80
20848;BMP180;10584;50.854;12.902;2023-08-12T09:58:27;98313.00;;;27.90
20848;BMP180;10584;50.854;12.902;2023-08-12T10:03:50;98318.00;;;27.90
20848;BMP180;10584;50.854;12.902;2023-08-12T10:09:16;98318.00;;;27.90
20848;BMP180;10584;50.854;12.902;2023-08-12T10:14:37;98324.00;;;28.00
20848;BMP180;10584;50.854;12.902;2023-08-12T10:20:03;98314.00;;;27.90
20848;BMP180;10584;50.854;12.902;2023-08-12T10:25:25;98314.00;;;27.80
20848;BMP180;10584;50.854;12.902;2023-08-12T10:30:52;98306.00;;;27.80
20848;BMP180;10584;50.854;12.902;2023-08-12T10:36:15;98308.00;;;27.70
20848;BMP180;10584;50.854;12.902;2023-08-12T10:41:40;98313.00;;;27.60
20848;BMP180;10584;50.854;12.902;2023-08-12T10:47:11;98315.00;;;27.70
20848;BMP180;10584;50.854;12.902;2023-08-12T10:52:35;98310.00;;;27.80
20848;BMP180;10584;50.854;12.902;2023-08-12T10:57:58;98300.00;;;28.00
20848;BMP180;10584;50.854;12.902;2023-08-12T11:03:20;98313.00;;;28.20
20848;BMP180;10584;50.854;12.902;2023-08-12T11:08:52;98307.00;;;28.40
20848;BMP180;10584;50.854;12.902;2023-08-12T11:14:15;98310.00;;;28.50
20848;BMP180;10584;50.854;12.902;2023-08-12T11:19:39;98315.00;;;28.50
20848;BMP180;10584;50.854;12.902;2023-08-12T11:25:01;98307.00;;;28.60
20848;BMP180;10584;50.854;12.902;2023-08-12T11:30:23;98302.00;;;28.60
20848;BMP180;10584;50.854;12.902;2023-08-12T11:35:45;98297.00;;;28.70
20848;BMP180;10584;50.854;12.902;2023-08-12T11:41:07;98293.00;;;28.70
20848;BMP180;10584;50.854;12.902;2023-08-12T11:46:28;98288.00;;;28.60
20848;BMP180;10584;50.854;12.902;2023-08-12T11:51:50;98289.00;;;28.50
20848;BMP180;10584;50.854;12.902;2023-08-12T11:57:11;98290.00;;;28.50
20848;BMP180;10584;50.854;12.902;2023-08-12T12:02:37;98287.00;;;28.40
20848;BMP180;10584;50.854;12.902;2023-08-12T12:08:00;98283.00;;;28.20
20848;BMP180;10584;50.854;12.902;2023-08-12T12:13:22;98287.00;;;28.00
20848;BMP180;10584;50.854;12.902;2023-08-12T12:18:46;98284.00;;;27.90
20848;BMP180;10584;50.854;12.902;2023-08-12T12:24:11;98275.00;;;27.90
20848;BMP180;10584;50.854;12.902;2023-08-12T12:29:33;98265.00;;;28.00
20848;BMP180;10584;50.854;12.902;2023-08-12T12:34:54;98249.00;;;28.30
20848;BMP180;10584;50.854;12.902;2023-08-12T12:40:16;98246.00;;;28.50
20848;BMP180;10584;50.854;12.902;2023-08-12T12:45:38;98236.00;;;29.00
20848;BMP180;10584;50.854;12.902;2023-08-12T12:51:00;98225.00;;;29.40
20848;BMP180;10584;50.854;12.902;2023-08-12T12:56:21;98214.00;;;29.80
20848;BMP180;10584;50.854;12.902;2023-08-12T13:01:43;98212.00;;;30.10
20848;BMP180;10584;50.854;12.902;2023-08-12T13:07:04;98199.00;;;30.30
20848;BMP180;10584;50.854;12.902;2023-08-12T13:12:26;98199.00;;;30.60
20848;BMP180;10584;50.854;12.902;2023-08-12T13:17:47;98191.00;;;30.60
20848;BMP180;10584;50.854;12.902;2023-08-12T13:23:08;98184.00;;;31.00
20848;BMP180;10584;50.854;12.902;2023-08-12T13:28:30;98188.00;;;31.00
20848;BMP180;10584;50.854;12.902;2023-08-12T13:33:51;98191.00;;;31.20
20848;BMP180;10584;50.854;12.902;2023-08-12T13:39:13;98186.00;;;31.20
20848;BMP180;10584;50.854;12.902;2023-08-12T13:44:34;98188.00;;;31.30
20848;BMP180;10584;50.854;12.902;2023-08-12T13:49:56;98199.00;;;31.40
20848;BMP180;10584;50.854;12.902;2023-08-12T13:55:18;98196.00;;;31.50
20848;BMP180;10584;50.854;12.902;2023-08-12T14:00:40;98193.00;;;31.30
20848;BMP180;10584;50.854;12.902;2023-08-12T14:06:02;98190.00;;;31.30
20848;BMP180;10584;50.854;12.902;2023-08-12T14:11:23;98188.00;;;31.20
20848;BMP180;10584;50.854;12.902;2023-08-12T14:16:45;98173.00;;;31.40
20848;BMP180;10584;50.854;12.902;2023-08-12T14:22:07;98172.00;;;31.30
20848;BMP180;10584;50.854;12.902;2023-08-12T14:27:29;98165.00;;;31.50
20848;BMP180;10584;50.854;12.902;2023-08-12T14:32:50;98152.00;;;31.70
20848;BMP180;10584;50.854;12.902;2023-08-12T14:38:12;98158.00;;;31.70
20848;BMP180;10584;50.854;12.902;2023-08-12T14:43:34;98144.00;;;31.70
20848;BMP180;10584;50.854;12.902;2023-08-12T14:48:56;98131.00;;;31.80
20848;BMP180;10584;50.854;12.902;2023-08-12T14:54:18;98128.00;;;32.00
20848;BMP180;10584;50.854;12.902;2023-08-12T14:59:39;98127.00;;;32.00
20848;BMP180;10584;50.854;12.902;2023-08-12T15:05:05;98129.00;;;32.00
20848;BMP180;10584;50.854;12.902;2023-08-12T15:10:27;98130.00;;;32.10
20848;BMP180;10584;50.854;12.902;2023-08-12T15:15:50;98130.00;;;31.80
20848;BMP180;10584;50.854;12.902;2023-08-12T15:21:12;98133.00;;;31.70
20848;BMP180;10584;50.854;12.902;2023-08-12T15:26:34;98143.00;;;31.50
20848;BMP180;10584;50.854;12.902;2023-08-12T15:31:56;98137.00;;;31.30
20848;BMP180;10584;50.854;12.902;2023-08-12T15:37:17;98146.00;;;30.90
20848;BMP180;10584;50.854;12.902;2023-08-12T15:42:39;98155.00;;;30.60
20848;BMP180;10584;50.854;12.902;2023-08-12T15:48:01;98241.00;;;29.40
20848;BMP180;10584;50.854;12.902;2023-08-12T15:53:23;98337.00;;;25.90
20848;BMP180;10584;50.854;12.902;2023-08-12T15:58:44;98352.00;;;23.80
20848;BMP180;10584;50.854;12.902;2023-08-12T16:04:06;98368.00;;;24.00
20848;BMP180;10584;50.854;12.902;2023-08-12T16:09:27;98367.00;;;23.20
20848;BMP180;10584;50.854;12.902;2023-08-12T16:14:51;98356.00;;;22.90
20848;BMP180;10584;50.854;12.902;2023-08-12T16:20:12;98352.00;;;22.20
20848;BMP180;10584;50.854;12.902;2023-08-12T16:25:34;98345.00;;;22.00
20848;BMP180;10584;50.854;12.902;2023-08-12T16:30:55;98334.00;;;21.80
20848;BMP180;10584;50.854;12.902;2023-08-12T16:36:17;98317.00;;;21.50
20848;BMP180;10584;50.854;12.902;2023-08-12T16:41:39;98316.00;;;21.50
20848;BMP180;10584;50.854;12.902;2023-08-12T16:47:00;98302.00;;;21.20
20848;BMP180;10584;50.854;12.902;2023-08-12T16:52:22;98292.00;;;21.10
20848;BMP180;10584;50.854;12.902;2023-08-12T16:57:43;98263.00;;;21.00
20848;BMP180;10584;50.854;12.902;2023-08-12T17:03:05;98262.00;;;20.80
20848;BMP180;10584;50.854;12.902;2023-08-12T17:08:26;98270.00;;;20.80
20848;BMP180;10584;50.854;12.902;2023-08-12T17:13:48;98269.00;;;20.70
20848;BMP180;10584;50.854;12.902;2023-08-12T17:19:10;98268.00;;;20.70
20848;BMP180;10584;50.854;12.902;2023-08-12T17:24:31;98254.00;;;20.70
20848;BMP180;10584;50.854;12.902;2023-08-12T17:29:54;98255.00;;;20.80
20848;BMP180;10584;50.854;12.902;2023-08-12T17:35:16;98255.00;;;20.90
20848;BMP180;10584;50.854;12.902;2023-08-12T17:40:37;98239.00;;;20.80
20848;BMP180;10584;50.854;12.902;2023-08-12T17:45:59;98235.00;;;20.80
20848;BMP180;10584;50.854;12.902;2023-08-12T17:51:20;98232.00;;;20.70
20848;BMP180;10584;50.854;12.902;2023-08-12T17:56:42;98225.00;;;20.70
20848;BMP180;10584;50.854;12.902;2023-08-12T18:02:04;98236.00;;;20.70
20848;BMP180;10584;50.854;12.902;2023-08-12T18:07:25;98244.00;;;20.50
20848;BMP180;10584;50.854;12.902;2023-08-12T18:12:47;98243.00;;;20.30
20848;BMP180;10584;50.854;12.902;2023-08-12T18:18:08;98251.00;;;20.30
20848;BMP180;10584;50.854;12.902;2023-08-12T18:23:30;98250.00;;;20.50
20848;BMP180;10584;50.854;12.902;2023-08-12T18:28:51;98254.00;;;20.40
20848;BMP180;10584;50.854;12.902;2023-08-12T18:34:13;98263.00;;;20.30
20848;BMP180;10584;50.854;12.902;2023-08-12T18:39:35;98260.00;;;20.30
20848;BMP180;10584;50.854;12.902;2023-08-12T18:44:56;98252.00;;;20.20
20848;BMP180;10584;50.854;12.902;2023-08-12T18:50:18;98250.00;;;20.10
20848;BMP180;10584;50.854;12.902;2023-08-12T18:55:39;98251.00;;;20.00
20848;BMP180;10584;50.854;12.902;2023-08-12T19:01:01;98239.00;;;20.00
20848;BMP180;10584;50.854;12.902;2023-08-12T19:06:23;98257.00;;;20.00
20848;BMP180;10584;50.854;12.902;2023-08-12T19:11:45;98239.00;;;19.90
20848;BMP180;10584;50.854;12.902;2023-08-12T19:17:10;98245.00;;;20.00
20848;BMP180;10584;50.854;12.902;2023-08-12T19:22:31;98255.00;;;20.00
20848;BMP180;10584;50.854;12.902;2023-08-12T19:27:53;98255.00;;;19.90
20848;BMP180;10584;50.854;12.902;2023-08-12T19:33:14;98257.00;;;19.80
20848;BMP180;10584;50.854;12.902;2023-08-12T19:38:36;98258.00;;;19.90
20848;BMP180;10584;50.854;12.902;2023-08-12T19:43:58;98257.00;;;19.80
20848;BMP180;10584;50.854;12.902;2023-08-12T19:49:20;98263.00;;;19.80
20848;BMP180;10584;50.854;12.902;2023-08-12T19:54:42;98264.00;;;19.70
20848;BMP180;10584;50.854;12.902;2023-08-12T20:00:04;98255.00;;;19.50
20848;BMP180;10584;50.854;12.902;2023-08-12T20:05:31;98268.00;;;19.50
20848;BMP180;10584;50.854;12.902;2023-08-12T20:10:53;98258.00;;;19.50
20848;BMP180;10584;50.854;12.902;2023-08-12T20:16:15;98265.00;;;19.50
20848;BMP180;10584;50.854;12.902;2023-08-12T20:21:37;98271.00;;;19.50
20848;BMP180;10584;50.854;12.902;2023-08-12T20:26:58;98275.00;;;19.50
20848;BMP180;10584;50.854;12.902;2023-08-12T20:32:20;98282.00;;;19.30
20848;BMP180;10584;50.854;12.902;2023-08-12T20:37:41;98278.00;;;19.30
20848;BMP180;10584;50.854;12.902;2023-08-12T20:43:03;98280.00;;;19.40
20848;BMP180;10584;50.854;12.902;2023-08-12T20:48:25;98271.00;;;19.30
20848;BMP180;10584;50.854;12.902;2023-08-12T20:53:47;98284.00;;;19.40
20848;BMP180;10584;50.854;12.902;2023-08-12T20:59:08;98283.00;;;19.30
20848;BMP180;10584;50.854;12.902;2023-08-12T21:04:30;98278.00;;;19.20
20848;BMP180;10584;50.854;12.902;2023-08-12T21:09:51;98288.00;;;19.20
20848;BMP180;10584;50.854;12.902;2023-08-12T21:15:13;98288.00;;;19.20
20848;BMP180;10584;50.854;12.902;2023-08-12T21:20:35;98281.00;;;19.20
20848;BMP180;10584;50.854;12.902;2023-08-12T21:25:56;98280.00;;;19.00
20848;BMP180;10584;50.854;12.902;2023-08-12T21:31:18;98287.00;;;19.10
20848;BMP180;10584;50.854;12.902;2023-08-12T21:36:39;98292.00;;;19.00
20848;BMP180;10584;50.854;12.902;2023-08-12T21:42:00;98304.00;;;19.00
20848;BMP180;10584;50.854;12.902;2023-08-12T21:47:22;98299.00;;;19.00
20848;BMP180;10584;50.854;12.902;2023-08-12T21:52:44;98299.00;;;19.00
20848;BMP180;10584;50.854;12.902;2023-08-12T21:58:05;98304.00;;;18.90
20848;BMP180;10584;50.854;12.902;2023-08-12T22:03:27;98301.00;;;18.90
20848;BMP180;10584;50.854;12.902;2023-08-12T22:08:49;98301.00;;;18.90
20848;BMP180;10584;50.854;12.902;2023-08-12T22:14:10;98302.00;;;18.90
20848;BMP180;10584;50.854;12.902;2023-08-12T22:19:32;98310.00;;;18.90
20848;BMP180;10584;50.854;12.902;2023-08-12T22:24:53;98322.00;;;18.90
20848;BMP180;10584;50.854;12.902;2023-08-12T22:30:15;98325.00;;;18.90
20848;BMP180;10584;50.854;12.902;2023-08-12T22:35:37;98318.00;;;18.70
20848;BMP180;10584;50.854;12.902;2023-08-12T22:40:58;98327.00;;;18.70
20848;BMP180;10584;50.854;12.902;2023-08-12T22:46:20;98327.00;;;18.60
20848;BMP180;10584;50.854;12.902;2023-08-12T22:51:41;98321.00;;;18.70
20848;BMP180;10584;50.854;12.902;2023-08-12T22:57:03;98339.00;;;18.70
20848;BMP180;10584;50.854;12.902;2023-08-12T23:02:25;98337.00;;;18.80
20848;BMP180;10584;50.854;12.902;2023-08-12T23:07:46;98336.00;;;18.80
20848;BMP180;10584;50.854;12.902;2023-08-12T23:13:08;98346.00;;;18.80
20848;BMP180;10584;50.854;12.902;2023-08-12T23:18:29;98334.00;;;18.60
20848;BMP180;10584;50.854;12.902;2023-08-12T23:23:51;98341.00;;;18.70
20848;BMP180;10584;50.854;12.902;2023-08-12T23:29:16;98341.00;;;18.70
20848;BMP180;10584;50.854;12.902;2023-08-12T23:34:37;98341.00;;;18.80
20848;BMP180;10584;50.854;12.902;2023-08-12T23:39:59;98333.00;;;18.80
20848;BMP180;10584;50.854;12.902;2023-08-12T23:45:21;98346.00;;;18.90
20848;BMP180;10584;50.854;12.902;2023-08-12T23:50:42;98350.00;;;18.90
20848;BMP180;10584;50.854;12.902;2023-08-12T23:56:04;98341.00;;;18.90
